sensor_id;sensor_type;location;lat;lon;timestamp;temperature;humidity
35690;DHT22;26977;44.830;-0.674;2023-01-16T00:00:37;7.60;99.90
35690;DHT22;26977;44.830;-0.674;2023-01-16T00:03:04;7.60;99.90
35690;DHT22;26977;44.830;-0.674;2023-01-16T00:05:30;7.60;99.90
35690;DHT22;26977;44.830;-0.674;2023-01-16T00:07:56;7.50;99.90
35690;DHT22;26977;44.830;-0.674;2023-01-16T00:10:24;7.50;99.90
35690;DHT22;26977;44.830;-0.674;2023-01-16T00:13:01;7.50;99.90
35690;DHT22;26977;44.830;-0.674;2023-01-16T00:16:03;7.50;99.90
35690;DHT22;26977;44.830;-0.674;2023-01-16T00:19:00;7.50;99.90
35690;DHT22;26977;44.830;-0.674;2023-01-16T00:21:45;7.50;99.90
35690;DHT22;26977;44.830;-0.674;2023-01-16T00:24:24;7.50;99.90
35690;DHT22;26977;44.830;-0.674;2023-01-16T00:26:57;7.50;99.90
35690;DHT22;26977;44.830;-0.674;2023-01-16T00:29:23;7.50;99.90
35690;DHT22;26977;44.830;-0.674;2023-01-16T00:32:22;7.50;99.90
35690;DHT22;26977;44.830;-0.674;2023-01-16T00:35:10;7.50;99.90
35690;DHT22;26977;44.830;-0.674;2023-01-16T00:38:04;7.50;99.90
35690;DHT22;26977;44.830;-0.674;2023-01-16T00:40:49;7.50;99.90
35690;DHT22;26977;44.830;-0.674;2023-01-16T00:43:52;7.40;99.90
35690;DHT22;26977;44.830;-0.674;2023-01-16T00:46:20;7.40;99.90
35690;DHT22;26977;44.830;-0.674;2023-01-16T00:48:51;7.40;99.90
35690;DHT22;26977;44.830;-0.674;2023-01-16T00:51:22;7.40;99.90
35690;DHT22;26977;44.830;-0.674;2023-01-16T00:53:56;7.40;99.90
35690;DHT22;26977;44.830;-0.674;2023-01-16T00:56:24;7.40;99.90
35690;DHT22;26977;44.830;-0.674;2023-01-16T00:59:03;7.30;99.90
35690;DHT22;26977;44.830;-0.674;2023-01-16T01:01:45;7.30;99.90
35690;DHT22;26977;44.830;-0.674;2023-01-16T01:04:14;7.30;99.90
35690;DHT22;26977;44.830;-0.674;2023-01-16T01:06:43;7.30;99.90
35690;DHT22;26977;44.830;-0.674;2023-01-16T01:09:33;7.30;99.90
35690;DHT22;26977;44.830;-0.674;2023-01-16T01:12:22;7.30;99.90
35690;DHT22;26977;44.830;-0.674;2023-01-16T01:14:49;7.20;99.90
35690;DHT22;26977;44.830;-0.674;2023-01-16T01:17:55;7.20;99.90
35690;DHT22;26977;44.830;-0.674;2023-01-16T01:20:35;7.20;99.90
35690;DHT22;26977;44.830;-0.674;2023-01-16T01:23:01;7.20;99.90
35690;DHT22;26977;44.830;-0.674;2023-01-16T01:25:41;7.20;99.90
35690;DHT22;26977;44.830;-0.674;2023-01-16T01:28:20;7.20;99.90
35690;DHT22;26977;44.830;-0.674;2023-01-16T01:30:46;7.20;99.90
35690;DHT22;26977;44.830;-0.674;2023-01-16T01:33:12;7.20;99.90
35690;DHT22;26977;44.830;-0.674;2023-01-16T01:35:38;7.20;99.90
35690;DHT22;26977;44.830;-0.674;2023-01-16T01:38:04;7.20;99.90
35690;DHT22;26977;44.830;-0.674;2023-01-16T01:40:31;7.20;99.90
35690;DHT22;26977;44.830;-0.674;2023-01-16T01:42:57;7.20;99.90
35690;DHT22;26977;44.830;-0.674;2023-01-16T01:45:30;7.10;99.90
35690;DHT22;26977;44.830;-0.674;2023-01-16T01:53:35;7.10;99.90
35690;DHT22;26977;44.830;-0.674;2023-01-16T01:56:07;7.10;99.90
35690;DHT22;26977;44.830;-0.674;2023-01-16T01:58:38;7.10;99.90
35690;DHT22;26977;44.830;-0.674;2023-01-16T02:01:07;7.10;99.90
35690;DHT22;26977;44.830;-0.674;2023-01-16T02:03:39;7.10;99.90
35690;DHT22;26977;44.830;-0.674;2023-01-16T02:06:12;7.10;99.90
35690;DHT22;26977;44.830;-0.674;2023-01-16T02:08:40;7.10;99.90
35690;DHT22;26977;44.830;-0.674;2023-01-16T02:11:16;7.10;99.90
35690;DHT22;26977;44.830;-0.674;2023-01-16T02:13:56;7.10;99.90
35690;DHT22;26977;44.830;-0.674;2023-01-16T02:16:29;7.10;99.90
35690;DHT22;26977;44.830;-0.674;2023-01-16T02:19:45;7.10;99.90
35690;DHT22;26977;44.830;-0.674;2023-01-16T02:28:10;7.10;99.90
35690;DHT22;26977;44.830;-0.674;2023-01-16T02:44:24;7.50;99.90
35690;DHT22;26977;44.830;-0.674;2023-01-16T02:47:24;7.50;99.90
35690;DHT22;26977;44.830;-0.674;2023-01-16T02:52:57;7.50;99.90
35690;DHT22;26977;44.830;-0.674;2023-01-16T02:55:41;7.50;99.90
35690;DHT22;26977;44.830;-0.674;2023-01-16T02:58:31;7.50;99.90
35690;DHT22;26977;44.830;-0.674;2023-01-16T03:01:10;7.50;99.90
35690;DHT22;26977;44.830;-0.674;2023-01-16T03:06:31;7.50;99.90
35690;DHT22;26977;44.830;-0.674;2023-01-16T03:09:29;7.50;99.90
35690;DHT22;26977;44.830;-0.674;2023-01-16T03:20:53;7.60;99.90
35690;DHT22;26977;44.830;-0.674;2023-01-16T03:23:45;7.60;99.90
35690;DHT22;26977;44.830;-0.674;2023-01-16T03:29:27;7.80;99.90
35690;DHT22;26977;44.830;-0.674;2023-01-16T03:32:35;7.80;99.90
35690;DHT22;26977;44.830;-0.674;2023-01-16T03:35:25;7.70;99.90
35690;DHT22;26977;44.830;-0.674;2023-01-16T03:38:10;7.60;99.90
35690;DHT22;26977;44.830;-0.674;2023-01-16T03:41:05;7.50;99.90
35690;DHT22;26977;44.830;-0.674;2023-01-16T03:44:06;7.50;99.90
35690;DHT22;26977;44.830;-0.674;2023-01-16T03:46:59;7.50;99.90
35690;DHT22;26977;44.830;-0.674;2023-01-16T03:49:46;7.60;99.90
35690;DHT22;26977;44.830;-0.674;2023-01-16T03:52:15;8.00;99.90
35690;DHT22;26977;44.830;-0.674;2023-01-16T03:59:46;8.10;99.90
35690;DHT22;26977;44.830;-0.674;2023-01-16T04:02:18;8.00;99.90
35690;DHT22;26977;44.830;-0.674;2023-01-16T04:05:17;8.00;99.90
35690;DHT22;26977;44.830;-0.674;2023-01-16T04:08:14;8.00;99.90
35690;DHT22;26977;44.830;-0.674;2023-01-16T04:10:43;8.00;99.90
35690;DHT22;26977;44.830;-0.674;2023-01-16T04:13:18;8.10;99.90
35690;DHT22;26977;44.830;-0.674;2023-01-16T04:15:55;8.10;99.90
35690;DHT22;26977;44.830;-0.674;2023-01-16T04:18:24;8.20;99.90
35690;DHT22;26977;44.830;-0.674;2023-01-16T04:21:10;8.30;99.90
35690;DHT22;26977;44.830;-0.674;2023-01-16T04:24:04;8.40;99.90
35690;DHT22;26977;44.830;-0.674;2023-01-16T04:26:51;8.40;99.90
35690;DHT22;26977;44.830;-0.674;2023-01-16T04:36:44;8.40;99.90
35690;DHT22;26977;44.830;-0.674;2023-01-16T04:47:08;8.60;99.90
35690;DHT22;26977;44.830;-0.674;2023-01-16T04:50:05;8.20;99.90
35690;DHT22;26977;44.830;-0.674;2023-01-16T04:53:20;8.00;99.90
35690;DHT22;26977;44.830;-0.674;2023-01-16T04:56:40;7.90;99.90
35690;DHT22;26977;44.830;-0.674;2023-01-16T04:59:37;7.90;99.90
35690;DHT22;26977;44.830;-0.674;2023-01-16T05:02:03;7.90;99.90
35690;DHT22;26977;44.830;-0.674;2023-01-16T05:04:29;7.90;99.90
35690;DHT22;26977;44.830;-0.674;2023-01-16T05:06:56;7.90;99.90
35690;DHT22;26977;44.830;-0.674;2023-01-16T05:09:22;8.00;99.90
35690;DHT22;26977;44.830;-0.674;2023-01-16T05:11:47;7.90;99.90
35690;DHT22;26977;44.830;-0.674;2023-01-16T05:16:40;7.30;99.90
35690;DHT22;26977;44.830;-0.674;2023-01-16T05:26:26;7.20;99.90
35690;DHT22;26977;44.830;-0.674;2023-01-16T05:28:53;7.20;99.90
35690;DHT22;26977;44.830;-0.674;2023-01-16T05:31:19;7.20;99.90
35690;DHT22;26977;44.830;-0.674;2023-01-16T05:33:44;7.10;99.90
35690;DHT22;26977;44.830;-0.674;2023-01-16T05:36:12;7.10;99.90
35690;DHT22;26977;44.830;-0.674;2023-01-16T05:38:37;7.10;99.90
35690;DHT22;26977;44.830;-0.674;2023-01-16T05:41:04;7.10;99.90
35690;DHT22;26977;44.830;-0.674;2023-01-16T05:43:30;7.10;99.90
35690;DHT22;26977;44.830;-0.674;2023-01-16T05:45:55;7.10;99.90
35690;DHT22;26977;44.830;-0.674;2023-01-16T05:48:21;7.30;99.90
35690;DHT22;26977;44.830;-0.674;2023-01-16T05:50:49;7.50;99.90
35690;DHT22;26977;44.830;-0.674;2023-01-16T05:53:15;7.50;99.90
35690;DHT22;26977;44.830;-0.674;2023-01-16T05:55:46;7.60;99.90
35690;DHT22;26977;44.830;-0.674;2023-01-16T05:58:13;7.60;99.90
35690;DHT22;26977;44.830;-0.674;2023-01-16T06:02:26;7.80;99.90
35690;DHT22;26977;44.830;-0.674;2023-01-16T06:09:57;7.70;99.90
35690;DHT22;26977;44.830;-0.674;2023-01-16T06:12:26;7.70;99.90
35690;DHT22;26977;44.830;-0.674;2023-01-16T06:18:12;7.70;99.90
35690;DHT22;26977;44.830;-0.674;2023-01-16T06:23:19;8.10;99.90
35690;DHT22;26977;44.830;-0.674;2023-01-16T06:25:48;7.80;99.90
35690;DHT22;26977;44.830;-0.674;2023-01-16T06:28:20;7.70;99.90
35690;DHT22;26977;44.830;-0.674;2023-01-16T06:30:50;7.70;99.90
35690;DHT22;26977;44.830;-0.674;2023-01-16T06:36:27;7.60;99.90
35690;DHT22;26977;44.830;-0.674;2023-01-16T06:44:22;8.10;99.90
35690;DHT22;26977;44.830;-0.674;2023-01-16T06:46:50;8.10;99.90
35690;DHT22;26977;44.830;-0.674;2023-01-16T06:49:18;8.00;99.90
35690;DHT22;26977;44.830;-0.674;2023-01-16T06:51:44;8.10;99.90
35690;DHT22;26977;44.830;-0.674;2023-01-16T06:54:10;8.00;99.90
35690;DHT22;26977;44.830;-0.674;2023-01-16T06:56:47;8.00;99.90
35690;DHT22;26977;44.830;-0.674;2023-01-16T06:59:29;7.90;99.90
35690;DHT22;26977;44.830;-0.674;2023-01-16T07:02:00;7.90;99.90
35690;DHT22;26977;44.830;-0.674;2023-01-16T07:04:57;7.90;99.90
35690;DHT22;26977;44.830;-0.674;2023-01-16T07:11:08;7.80;99.90
35690;DHT22;26977;44.830;-0.674;2023-01-16T07:14:14;7.60;99.90
35690;DHT22;26977;44.830;-0.674;2023-01-16T07:17:28;7.70;99.90
35690;DHT22;26977;44.830;-0.674;2023-01-16T07:24:02;7.70;99.90
35690;DHT22;26977;44.830;-0.674;2023-01-16T07:26:45;7.70;99.90
35690;DHT22;26977;44.830;-0.674;2023-01-16T07:29:30;7.60;99.90
35690;DHT22;26977;44.830;-0.674;2023-01-16T07:31:57;7.80;99.90
35690;DHT22;26977;44.830;-0.674;2023-01-16T07:34:27;7.80;99.90
35690;DHT22;26977;44.830;-0.674;2023-01-16T07:36:58;7.90;99.90
35690;DHT22;26977;44.830;-0.674;2023-01-16T07:39:23;7.90;99.90
35690;DHT22;26977;44.830;-0.674;2023-01-16T07:41:49;7.90;99.90
35690;DHT22;26977;44.830;-0.674;2023-01-16T07:44:15;8.00;99.90
35690;DHT22;26977;44.830;-0.674;2023-01-16T07:46:41;8.00;99.90
35690;DHT22;26977;44.830;-0.674;2023-01-16T07:49:07;7.90;99.90
35690;DHT22;26977;44.830;-0.674;2023-01-16T07:51:32;8.00;99.90
35690;DHT22;26977;44.830;-0.674;2023-01-16T07:53:58;8.30;99.90
35690;DHT22;26977;44.830;-0.674;2023-01-16T07:56:24;8.60;99.90
35690;DHT22;26977;44.830;-0.674;2023-01-16T07:58:49;8.70;99.90
35690;DHT22;26977;44.830;-0.674;2023-01-16T08:01:18;8.70;99.90
35690;DHT22;26977;44.830;-0.674;2023-01-16T08:03:43;8.70;99.90
35690;DHT22;26977;44.830;-0.674;2023-01-16T08:06:09;8.70;99.90
35690;DHT22;26977;44.830;-0.674;2023-01-16T08:08:35;8.90;99.90
35690;DHT22;26977;44.830;-0.674;2023-01-16T08:11:01;8.90;99.90
35690;DHT22;26977;44.830;-0.674;2023-01-16T08:13:49;9.00;99.90
35690;DHT22;26977;44.830;-0.674;2023-01-16T08:16:15;9.00;99.90
35690;DHT22;26977;44.830;-0.674;2023-01-16T08:18:40;9.00;99.90
35690;DHT22;26977;44.830;-0.674;2023-01-16T08:21:06;8.90;99.90
35690;DHT22;26977;44.830;-0.674;2023-01-16T08:23:34;9.00;99.90
35690;DHT22;26977;44.830;-0.674;2023-01-16T08:26:00;9.00;99.90
35690;DHT22;26977;44.830;-0.674;2023-01-16T08:28:26;9.00;99.90
35690;DHT22;26977;44.830;-0.674;2023-01-16T08:30:52;9.20;99.90
35690;DHT22;26977;44.830;-0.674;2023-01-16T08:33:17;9.10;99.90
35690;DHT22;26977;44.830;-0.674;2023-01-16T08:35:46;9.10;99.90
35690;DHT22;26977;44.830;-0.674;2023-01-16T08:38:33;8.90;99.90
35690;DHT22;26977;44.830;-0.674;2023-01-16T08:41:09;8.90;99.90
35690;DHT22;26977;44.830;-0.674;2023-01-16T08:43:55;8.40;99.90
35690;DHT22;26977;44.830;-0.674;2023-01-16T08:46:39;8.20;99.90
35690;DHT22;26977;44.830;-0.674;2023-01-16T08:49:24;8.10;99.90
35690;DHT22;26977;44.830;-0.674;2023-01-16T08:52:08;8.00;99.90
35690;DHT22;26977;44.830;-0.674;2023-01-16T08:54:33;8.00;99.90
35690;DHT22;26977;44.830;-0.674;2023-01-16T08:56:59;8.10;99.90
35690;DHT22;26977;44.830;-0.674;2023-01-16T08:59:25;8.10;99.90
35690;DHT22;26977;44.830;-0.674;2023-01-16T09:05:42;8.00;99.90
35690;DHT22;26977;44.830;-0.674;2023-01-16T09:08:23;7.90;99.90
35690;DHT22;26977;44.830;-0.674;2023-01-16T09:10:49;7.70;99.90
35690;DHT22;26977;44.830;-0.674;2023-01-16T09:16:58;7.50;99.90
35690;DHT22;26977;44.830;-0.674;2023-01-16T09:19:24;7.50;99.90
35690;DHT22;26977;44.830;-0.674;2023-01-16T09:21:49;7.60;99.90
35690;DHT22;26977;44.830;-0.674;2023-01-16T09:24:32;7.70;99.90
35690;DHT22;26977;44.830;-0.674;2023-01-16T09:26:58;7.80;99.90
35690;DHT22;26977;44.830;-0.674;2023-01-16T09:29:35;7.80;99.90
35690;DHT22;26977;44.830;-0.674;2023-01-16T09:32:11;7.80;99.90
35690;DHT22;26977;44.830;-0.674;2023-01-16T09:35:08;7.80;99.90
35690;DHT22;26977;44.830;-0.674;2023-01-16T09:37:45;7.80;99.90
35690;DHT22;26977;44.830;-0.674;2023-01-16T09:40:19;7.90;99.90
35690;DHT22;26977;44.830;-0.674;2023-01-16T09:49:17;7.90;99.90
35690;DHT22;26977;44.830;-0.674;2023-01-16T09:51:55;8.00;99.90
35690;DHT22;26977;44.830;-0.674;2023-01-16T09:54:57;7.90;99.90
35690;DHT22;26977;44.830;-0.674;2023-01-16T09:57:45;7.80;99.90
35690;DHT22;26977;44.830;-0.674;2023-01-16T10:00:31;7.80;99.90
35690;DHT22;26977;44.830;-0.674;2023-01-16T10:02:57;7.50;99.90
35690;DHT22;26977;44.830;-0.674;2023-01-16T10:05:50;7.40;99.90
35690;DHT22;26977;44.830;-0.674;2023-01-16T10:08:50;7.30;99.90
35690;DHT22;26977;44.830;-0.674;2023-01-16T10:16:51;7.30;99.90
35690;DHT22;26977;44.830;-0.674;2023-01-16T10:27:36;7.30;99.90
35690;DHT22;26977;44.830;-0.674;2023-01-16T10:30:20;7.10;99.90
35690;DHT22;26977;44.830;-0.674;2023-01-16T10:33:15;7.10;99.90
35690;DHT22;26977;44.830;-0.674;2023-01-16T10:35:47;7.10;99.90
35690;DHT22;26977;44.830;-0.674;2023-01-16T10:38:42;7.20;99.90
35690;DHT22;26977;44.830;-0.674;2023-01-16T10:41:33;7.30;99.90
35690;DHT22;26977;44.830;-0.674;2023-01-16T10:47:13;7.30;99.90
35690;DHT22;26977;44.830;-0.674;2023-01-16T10:49:59;7.40;99.90
35690;DHT22;26977;44.830;-0.674;2023-01-16T10:52:26;7.40;99.90
35690;DHT22;26977;44.830;-0.674;2023-01-16T10:54:54;7.50;99.90
35690;DHT22;26977;44.830;-0.674;2023-01-16T10:57:23;7.50;99.90
35690;DHT22;26977;44.830;-0.674;2023-01-16T10:59:56;7.60;99.90
35690;DHT22;26977;44.830;-0.674;2023-01-16T11:02:40;7.70;99.90
35690;DHT22;26977;44.830;-0.674;2023-01-16T11:07:56;7.90;99.90
35690;DHT22;26977;44.830;-0.674;2023-01-16T11:10:26;7.90;99.90
35690;DHT22;26977;44.830;-0.674;2023-01-16T11:12:52;7.90;99.90
35690;DHT22;26977;44.830;-0.674;2023-01-16T11:19:22;7.80;99.90
35690;DHT22;26977;44.830;-0.674;2023-01-16T11:21:54;7.90;99.90
35690;DHT22;26977;44.830;-0.674;2023-01-16T11:24:23;8.00;99.90
35690;DHT22;26977;44.830;-0.674;2023-01-16T11:26:54;8.00;99.90
35690;DHT22;26977;44.830;-0.674;2023-01-16T11:29:41;8.00;99.90
35690;DHT22;26977;44.830;-0.674;2023-01-16T11:32:13;8.00;99.90
35690;DHT22;26977;44.830;-0.674;2023-01-16T11:34:45;8.10;99.90
35690;DHT22;26977;44.830;-0.674;2023-01-16T11:37:14;8.10;99.90
35690;DHT22;26977;44.830;-0.674;2023-01-16T11:39:41;8.10;99.90
35690;DHT22;26977;44.830;-0.674;2023-01-16T11:49:00;8.20;99.90
35690;DHT22;26977;44.830;-0.674;2023-01-16T11:51:30;8.20;99.90
35690;DHT22;26977;44.830;-0.674;2023-01-16T11:53:57;8.40;99.90
35690;DHT22;26977;44.830;-0.674;2023-01-16T11:59:15;8.40;99.90
35690;DHT22;26977;44.830;-0.674;2023-01-16T12:05:10;8.40;99.90
35690;DHT22;26977;44.830;-0.674;2023-01-16T12:11:02;8.40;99.90
35690;DHT22;26977;44.830;-0.674;2023-01-16T12:14:09;8.40;99.90
35690;DHT22;26977;44.830;-0.674;2023-01-16T12:17:13;8.20;99.90
35690;DHT22;26977;44.830;-0.674;2023-01-16T12:48:45;7.60;99.90
35690;DHT22;26977;44.830;-0.674;2023-01-16T12:59:24;7.90;99.90
35690;DHT22;26977;44.830;-0.674;2023-01-16T13:02:02;7.90;99.90
35690;DHT22;26977;44.830;-0.674;2023-01-16T13:04:55;8.00;99.90
35690;DHT22;26977;44.830;-0.674;2023-01-16T13:07:22;8.00;99.90
35690;DHT22;26977;44.830;-0.674;2023-01-16T13:12:53;8.00;99.90
35690;DHT22;26977;44.830;-0.674;2023-01-16T13:15:40;7.80;99.90
35690;DHT22;26977;44.830;-0.674;2023-01-16T13:18:18;7.70;99.90
35690;DHT22;26977;44.830;-0.674;2023-01-16T13:20:55;7.70;99.90
35690;DHT22;26977;44.830;-0.674;2023-01-16T13:23:24;7.70;99.90
35690;DHT22;26977;44.830;-0.674;2023-01-16T13:26:00;7.70;99.90
35690;DHT22;26977;44.830;-0.674;2023-01-16T13:31:42;7.70;99.90
35690;DHT22;26977;44.830;-0.674;2023-01-16T13:34:36;7.70;99.90
35690;DHT22;26977;44.830;-0.674;2023-01-16T13:42:19;7.60;99.90
35690;DHT22;26977;44.830;-0.674;2023-01-16T13:44:50;7.60;99.90
35690;DHT22;26977;44.830;-0.674;2023-01-16T13:47:39;7.70;99.90
35690;DHT22;26977;44.830;-0.674;2023-01-16T13:50:23;7.80;99.90
35690;DHT22;26977;44.830;-0.674;2023-01-16T13:52:50;7.90;99.90
35690;DHT22;26977;44.830;-0.674;2023-01-16T13:55:35;7.90;99.90
35690;DHT22;26977;44.830;-0.674;2023-01-16T14:00:34;8.00;99.90
35690;DHT22;26977;44.830;-0.674;2023-01-16T14:03:21;8.00;99.90
35690;DHT22;26977;44.830;-0.674;2023-01-16T14:05:49;8.10;99.90
35690;DHT22;26977;44.830;-0.674;2023-01-16T14:08:29;8.20;99.90
35690;DHT22;26977;44.830;-0.674;2023-01-16T14:12:00;8.20;99.90
35690;DHT22;26977;44.830;-0.674;2023-01-16T14:17:20;8.30;99.90
35690;DHT22;26977;44.830;-0.674;2023-01-16T14:19:58;8.30;99.90
35690;DHT22;26977;44.830;-0.674;2023-01-16T14:22:36;8.30;99.90
35690;DHT22;26977;44.830;-0.674;2023-01-16T14:25:05;8.30;99.90
35690;DHT22;26977;44.830;-0.674;2023-01-16T14:27:38;8.20;99.90
35690;DHT22;26977;44.830;-0.674;2023-01-16T14:30:17;8.20;99.90
35690;DHT22;26977;44.830;-0.674;2023-01-16T14:32:55;8.20;99.90
35690;DHT22;26977;44.830;-0.674;2023-01-16T14:35:28;8.20;99.90
35690;DHT22;26977;44.830;-0.674;2023-01-16T14:37:59;8.20;99.90
35690;DHT22;26977;44.830;-0.674;2023-01-16T14:40:28;8.30;99.90
35690;DHT22;26977;44.830;-0.674;2023-01-16T14:43:16;8.30;99.90
35690;DHT22;26977;44.830;-0.674;2023-01-16T14:46:26;8.30;99.90
35690;DHT22;26977;44.830;-0.674;2023-01-16T14:52:44;8.40;99.90
35690;DHT22;26977;44.830;-0.674;2023-01-16T15:00:56;8.40;99.90
35690;DHT22;26977;44.830;-0.674;2023-01-16T15:03:45;8.40;99.90
35690;DHT22;26977;44.830;-0.674;2023-01-16T15:06:14;8.40;99.90
35690;DHT22;26977;44.830;-0.674;2023-01-16T15:08:42;8.40;99.90
35690;DHT22;26977;44.830;-0.674;2023-01-16T15:11:25;8.40;99.90
35690;DHT22;26977;44.830;-0.674;2023-01-16T15:14:24;8.40;99.90
35690;DHT22;26977;44.830;-0.674;2023-01-16T15:17:18;8.40;99.90
35690;DHT22;26977;44.830;-0.674;2023-01-16T15:20:17;8.30;99.90
35690;DHT22;26977;44.830;-0.674;2023-01-16T15:23:27;8.30;99.90
35690;DHT22;26977;44.830;-0.674;2023-01-16T15:26:23;8.30;99.90
35690;DHT22;26977;44.830;-0.674;2023-01-16T15:29:24;8.30;99.90
35690;DHT22;26977;44.830;-0.674;2023-01-16T15:32:00;8.30;99.90
35690;DHT22;26977;44.830;-0.674;2023-01-16T15:34:30;8.30;99.90
35690;DHT22;26977;44.830;-0.674;2023-01-16T15:36:58;8.30;99.90
35690;DHT22;26977;44.830;-0.674;2023-01-16T15:42:32;8.30;99.90
35690;DHT22;26977;44.830;-0.674;2023-01-16T15:45:21;8.20;99.90
35690;DHT22;26977;44.830;-0.674;2023-01-16T15:48:39;8.00;99.90
35690;DHT22;26977;44.830;-0.674;2023-01-16T15:51:18;7.80;99.90
35690;DHT22;26977;44.830;-0.674;2023-01-16T15:53:47;7.70;99.90
35690;DHT22;26977;44.830;-0.674;2023-01-16T15:56:21;7.60;99.90
35690;DHT22;26977;44.830;-0.674;2023-01-16T15:58:50;7.50;99.90
35690;DHT22;26977;44.830;-0.674;2023-01-16T16:01:32;7.40;99.90
35690;DHT22;26977;44.830;-0.674;2023-01-16T16:04:00;7.30;99.90
35690;DHT22;26977;44.830;-0.674;2023-01-16T16:06:30;7.30;99.90
35690;DHT22;26977;44.830;-0.674;2023-01-16T16:09:03;7.30;99.90
35690;DHT22;26977;44.830;-0.674;2023-01-16T16:11:36;7.30;99.90
35690;DHT22;26977;44.830;-0.674;2023-01-16T16:14:34;7.30;99.90
35690;DHT22;26977;44.830;-0.674;2023-01-16T16:17:34;7.20;99.90
35690;DHT22;26977;44.830;-0.674;2023-01-16T16:20:37;7.20;99.90
35690;DHT22;26977;44.830;-0.674;2023-01-16T16:23:25;7.30;99.90
35690;DHT22;26977;44.830;-0.674;2023-01-16T16:26:19;7.30;99.90
35690;DHT22;26977;44.830;-0.674;2023-01-16T16:28:51;7.30;99.90
35690;DHT22;26977;44.830;-0.674;2023-01-16T16:31:27;7.30;99.90
35690;DHT22;26977;44.830;-0.674;2023-01-16T16:36:34;7.30;99.90
35690;DHT22;26977;44.830;-0.674;2023-01-16T16:39:39;7.30;99.90
35690;DHT22;26977;44.830;-0.674;2023-01-16T16:48:19;7.10;99.90
35690;DHT22;26977;44.830;-0.674;2023-01-16T16:50:35;7.10;99.90
35690;DHT22;26977;44.830;-0.674;2023-01-16T16:53:15;7.00;99.90
35690;DHT22;26977;44.830;-0.674;2023-01-16T16:55:45;7.10;99.90
35690;DHT22;26977;44.830;-0.674;2023-01-16T16:58:15;7.00;99.90
35690;DHT22;26977;44.830;-0.674;2023-01-16T17:00:46;7.00;99.90
35690;DHT22;26977;44.830;-0.674;2023-01-16T17:03:16;6.90;99.90
35690;DHT22;26977;44.830;-0.674;2023-01-16T17:05:45;6.90;99.90
35690;DHT22;26977;44.830;-0.674;2023-01-16T17:08:25;6.90;99.90
35690;DHT22;26977;44.830;-0.674;2023-01-16T17:10:55;6.90;99.90
35690;DHT22;26977;44.830;-0.674;2023-01-16T17:13:24;6.90;99.90
35690;DHT22;26977;44.830;-0.674;2023-01-16T17:15:56;6.90;99.90
35690;DHT22;26977;44.830;-0.674;2023-01-16T17:18:25;6.90;99.90
35690;DHT22;26977;44.830;-0.674;2023-01-16T17:20:54;7.00;99.90
35690;DHT22;26977;44.830;-0.674;2023-01-16T17:23:24;7.00;99.90
35690;DHT22;26977;44.830;-0.674;2023-01-16T17:25:52;7.00;99.90
35690;DHT22;26977;44.830;-0.674;2023-01-16T17:28:39;7.00;99.90
35690;DHT22;26977;44.830;-0.674;2023-01-16T17:31:41;7.00;99.90
35690;DHT22;26977;44.830;-0.674;2023-01-16T17:34:25;7.00;99.90
35690;DHT22;26977;44.830;-0.674;2023-01-16T17:36:56;7.00;99.90
35690;DHT22;26977;44.830;-0.674;2023-01-16T17:39:31;6.90;99.90
35690;DHT22;26977;44.830;-0.674;2023-01-16T17:42:02;6.90;99.90
35690;DHT22;26977;44.830;-0.674;2023-01-16T17:44:54;6.90;99.90
35690;DHT22;26977;44.830;-0.674;2023-01-16T17:47:54;6.90;99.90
35690;DHT22;26977;44.830;-0.674;2023-01-16T17:50:37;7.00;99.90
35690;DHT22;26977;44.830;-0.674;2023-01-16T17:53:13;6.90;99.90
35690;DHT22;26977;44.830;-0.674;2023-01-16T17:56:05;6.90;99.90
35690;DHT22;26977;44.830;-0.674;2023-01-16T17:58:55;6.80;99.90
35690;DHT22;26977;44.830;-0.674;2023-01-16T18:01:47;6.80;99.90
35690;DHT22;26977;44.830;-0.674;2023-01-16T18:04:50;6.80;99.90
35690;DHT22;26977;44.830;-0.674;2023-01-16T18:07:46;6.70;99.90
35690;DHT22;26977;44.830;-0.674;2023-01-16T18:10:26;6.60;99.90
35690;DHT22;26977;44.830;-0.674;2023-01-16T18:13:34;6.60;99.90
35690;DHT22;26977;44.830;-0.674;2023-01-16T18:16:32;6.60;99.90
35690;DHT22;26977;44.830;-0.674;2023-01-16T18:19:33;6.50;99.90
35690;DHT22;26977;44.830;-0.674;2023-01-16T18:22:32;6.50;99.90
35690;DHT22;26977;44.830;-0.674;2023-01-16T18:25:27;6.50;99.90
35690;DHT22;26977;44.830;-0.674;2023-01-16T18:28:17;6.50;99.90
35690;DHT22;26977;44.830;-0.674;2023-01-16T18:31:11;6.40;99.90
35690;DHT22;26977;44.830;-0.674;2023-01-16T18:33:51;6.50;99.90
35690;DHT22;26977;44.830;-0.674;2023-01-16T18:36:47;6.40;99.90
35690;DHT22;26977;44.830;-0.674;2023-01-16T18:39:38;6.50;99.90
35690;DHT22;26977;44.830;-0.674;2023-01-16T18:42:40;6.50;99.90
35690;DHT22;26977;44.830;-0.674;2023-01-16T18:45:35;6.50;99.90
35690;DHT22;26977;44.830;-0.674;2023-01-16T18:48:20;6.50;99.90
35690;DHT22;26977;44.830;-0.674;2023-01-16T18:51:11;6.50;99.90
35690;DHT22;26977;44.830;-0.674;2023-01-16T18:54:14;6.60;99.90
35690;DHT22;26977;44.830;-0.674;2023-01-16T18:56:59;6.60;99.90
35690;DHT22;26977;44.830;-0.674;2023-01-16T18:59:44;6.60;99.90
35690;DHT22;26977;44.830;-0.674;2023-01-16T19:02:40;6.60;99.90
35690;DHT22;26977;44.830;-0.674;2023-01-16T19:05:06;6.60;99.90
35690;DHT22;26977;44.830;-0.674;2023-01-16T19:07:32;6.60;99.90
35690;DHT22;26977;44.830;-0.674;2023-01-16T19:10:02;6.60;99.90
35690;DHT22;26977;44.830;-0.674;2023-01-16T19:12:29;6.60;99.90
35690;DHT22;26977;44.830;-0.674;2023-01-16T19:15:02;6.60;99.90
35690;DHT22;26977;44.830;-0.674;2023-01-16T19:17:29;6.60;99.90
35690;DHT22;26977;44.830;-0.674;2023-01-16T19:19:55;6.60;99.90
35690;DHT22;26977;44.830;-0.674;2023-01-16T19:22:25;6.70;99.90
35690;DHT22;26977;44.830;-0.674;2023-01-16T19:24:54;6.70;99.90
35690;DHT22;26977;44.830;-0.674;2023-01-16T19:27:23;6.70;99.90
35690;DHT22;26977;44.830;-0.674;2023-01-16T19:29:53;6.70;99.90
35690;DHT22;26977;44.830;-0.674;2023-01-16T19:32:35;6.70;99.90
35690;DHT22;26977;44.830;-0.674;2023-01-16T19:35:01;6.70;99.90
35690;DHT22;26977;44.830;-0.674;2023-01-16T19:37:30;6.70;99.90
35690;DHT22;26977;44.830;-0.674;2023-01-16T19:40:13;6.70;99.90
35690;DHT22;26977;44.830;-0.674;2023-01-16T19:42:59;6.70;99.90
35690;DHT22;26977;44.830;-0.674;2023-01-16T19:45:43;6.70;99.90
35690;DHT22;26977;44.830;-0.674;2023-01-16T19:48:28;6.70;99.90
35690;DHT22;26977;44.830;-0.674;2023-01-16T19:51:06;6.70;99.90
35690;DHT22;26977;44.830;-0.674;2023-01-16T19:53:32;6.70;99.90
35690;DHT22;26977;44.830;-0.674;2023-01-16T19:55:58;6.70;99.90
35690;DHT22;26977;44.830;-0.674;2023-01-16T19:58:31;6.60;99.90
35690;DHT22;26977;44.830;-0.674;2023-01-16T20:01:10;6.70;99.90
35690;DHT22;26977;44.830;-0.674;2023-01-16T20:03:36;6.70;99.90
35690;DHT22;26977;44.830;-0.674;2023-01-16T20:06:13;6.70;99.90
35690;DHT22;26977;44.830;-0.674;2023-01-16T20:08:40;6.70;99.90
35690;DHT22;26977;44.830;-0.674;2023-01-16T20:11:09;6.70;99.90
35690;DHT22;26977;44.830;-0.674;2023-01-16T20:13:49;6.60;99.90
35690;DHT22;26977;44.830;-0.674;2023-01-16T20:16:37;6.70;99.90
35690;DHT22;26977;44.830;-0.674;2023-01-16T20:19:03;6.60;99.90
35690;DHT22;26977;44.830;-0.674;2023-01-16T20:22:01;6.60;99.90
35690;DHT22;26977;44.830;-0.674;2023-01-16T20:24:47;6.60;99.90
35690;DHT22;26977;44.830;-0.674;2023-01-16T20:27:42;6.60;99.90